sensor_id;sensor_type;location;lat;lon;timestamp;P1;durP1;ratioP1;P2;durP2;ratioP2
13244;SDS011;6689;53.400;12.486;2023-05-10T00:00:11;6.03;;;4.35;;
13244;SDS011;6689;53.400;12.486;2023-05-10T00:02:39;6.07;;;3.95;;
13244;SDS011;6689;53.400;12.486;2023-05-10T00:05:07;5.38;;;3.95;;
13244;SDS011;6689;53.400;12.486;2023-05-10T00:07:34;5.55;;;3.97;;
13244;SDS011;6689;53.400;12.486;2023-05-10T00:10:03;4.43;;;3.83;;
13244;SDS011;6689;53.400;12.486;2023-05-10T00:12:31;8.18;;;4.80;;
13244;SDS011;6689;53.400;12.486;2023-05-10T00:14:58;15.32;;;5.00;;
13244;SDS011;6689;53.400;12.486;2023-05-10T00:17:26;9.20;;;3.90;;
13244;SDS011;6689;53.400;12.486;2023-05-10T00:19:53;5.25;;;4.15;;
13244;SDS011;6689;53.400;12.486;2023-05-10T00:22:20;8.43;;;4.15;;
13244;SDS011;6689;53.400;12.486;2023-05-10T00:24:48;8.20;;;4.40;;
13244;SDS011;6689;53.400;12.486;2023-05-10T00:27:16;5.10;;;4.40;;
13244;SDS011;6689;53.400;12.486;2023-05-10T00:29:44;7.97;;;5.05;;
13244;SDS011;6689;53.400;12.486;2023-05-10T00:32:11;5.72;;;4.50;;
13244;SDS011;6689;53.400;12.486;2023-05-10T00:34:39;5.60;;;4.50;;
13244;SDS011;6689;53.400;12.486;2023-05-10T00:37:06;9.48;;;4.53;;
13244;SDS011;6689;53.400;12.486;2023-05-10T00:39:33;10.68;;;5.45;;
13244;SDS011;6689;53.400;12.486;2023-05-10T00:42:01;6.72;;;4.07;;
13244;SDS011;6689;53.400;12.486;2023-05-10T00:44:30;6.47;;;4.85;;
13244;SDS011;6689;53.400;12.486;2023-05-10T00:46:58;8.82;;;4.43;;
13244;SDS011;6689;53.400;12.486;2023-05-10T00:49:26;7.45;;;4.97;;
13244;SDS011;6689;53.400;12.486;2023-05-10T00:51:53;5.97;;;4.47;;
13244;SDS011;6689;53.400;12.486;2023-05-10T00:54:21;6.80;;;4.85;;
13244;SDS011;6689;53.400;12.486;2023-05-10T00:56:48;4.97;;;4.00;;
13244;SDS011;6689;53.400;12.486;2023-05-10T00:59:15;6.68;;;4.60;;
13244;SDS011;6689;53.400;12.486;2023-05-10T01:01:44;9.70;;;4.80;;
13244;SDS011;6689;53.400;12.486;2023-05-10T01:04:12;6.22;;;4.47;;
13244;SDS011;6689;53.400;12.486;2023-05-10T01:06:41;6.25;;;5.18;;
13244;SDS011;6689;53.400;12.486;2023-05-10T01:09:09;11.98;;;4.97;;
13244;SDS011;6689;53.400;12.486;2023-05-10T01:11:37;8.65;;;4.70;;
13244;SDS011;6689;53.400;12.486;2023-05-10T01:14:06;8.65;;;4.72;;
13244;SDS011;6689;53.400;12.486;2023-05-10T01:16:35;8.90;;;5.25;;
13244;SDS011;6689;53.400;12.486;2023-05-10T01:19:06;6.72;;;4.97;;
13244;SDS011;6689;53.400;12.486;2023-05-10T01:21:41;5.15;;;4.35;;
13244;SDS011;6689;53.400;12.486;2023-05-10T01:24:26;9.13;;;5.13;;
13244;SDS011;6689;53.400;12.486;2023-05-10T01:27:25;7.40;;;4.32;;
13244;SDS011;6689;53.400;12.486;2023-05-10T01:30:19;12.85;;;5.60;;
13244;SDS011;6689;53.400;12.486;2023-05-10T01:33:02;10.98;;;4.90;;
13244;SDS011;6689;53.400;12.486;2023-05-10T01:35:42;9.98;;;5.43;;
13244;SDS011;6689;53.400;12.486;2023-05-10T01:38:16;6.55;;;5.18;;
13244;SDS011;6689;53.400;12.486;2023-05-10T01:40:48;6.00;;;4.60;;
13244;SDS011;6689;53.400;12.486;2023-05-10T01:43:22;11.02;;;4.80;;
13244;SDS011;6689;53.400;12.486;2023-05-10T01:45:55;5.32;;;4.40;;
13244;SDS011;6689;53.400;12.486;2023-05-10T01:48:31;8.50;;;4.55;;
13244;SDS011;6689;53.400;12.486;2023-05-10T01:50:59;7.70;;;4.65;;
13244;SDS011;6689;53.400;12.486;2023-05-10T01:53:29;5.13;;;4.55;;
13244;SDS011;6689;53.400;12.486;2023-05-10T01:55:58;7.28;;;5.63;;
13244;SDS011;6689;53.400;12.486;2023-05-10T01:58:28;10.70;;;4.90;;
13244;SDS011;6689;53.400;12.486;2023-05-10T02:00:58;9.52;;;5.72;;
13244;SDS011;6689;53.400;12.486;2023-05-10T02:03:31;8.80;;;5.00;;
13244;SDS011;6689;53.400;12.486;2023-05-10T02:06:01;8.63;;;5.57;;
13244;SDS011;6689;53.400;12.486;2023-05-10T02:08:29;10.43;;;4.30;;
13244;SDS011;6689;53.400;12.486;2023-05-10T02:10:58;8.32;;;5.13;;
13244;SDS011;6689;53.400;12.486;2023-05-10T02:13:26;7.00;;;4.82;;
13244;SDS011;6689;53.400;12.486;2023-05-10T02:15:56;7.60;;;5.07;;
13244;SDS011;6689;53.400;12.486;2023-05-10T02:18:24;7.57;;;5.10;;
13244;SDS011;6689;53.400;12.486;2023-05-10T02:20:55;6.40;;;5.03;;
13244;SDS011;6689;53.400;12.486;2023-05-10T02:23:22;6.68;;;4.95;;
13244;SDS011;6689;53.400;12.486;2023-05-10T02:25:51;6.30;;;4.82;;
13244;SDS011;6689;53.400;12.486;2023-05-10T02:28:21;6.03;;;4.97;;
13244;SDS011;6689;53.400;12.486;2023-05-10T02:30:51;5.53;;;4.70;;
13244;SDS011;6689;53.400;12.486;2023-05-10T02:33:19;6.28;;;4.60;;
13244;SDS011;6689;53.400;12.486;2023-05-10T02:35:48;7.65;;;5.18;;
13244;SDS011;6689;53.400;12.486;2023-05-10T02:38:18;6.68;;;5.35;;
13244;SDS011;6689;53.400;12.486;2023-05-10T02:40:47;6.63;;;4.55;;
13244;SDS011;6689;53.400;12.486;2023-05-10T02:43:17;8.32;;;4.70;;
13244;SDS011;6689;53.400;12.486;2023-05-10T02:45:47;12.13;;;5.75;;
13244;SDS011;6689;53.400;12.486;2023-05-10T02:48:15;6.22;;;4.93;;
13244;SDS011;6689;53.400;12.486;2023-05-10T02:50:44;8.55;;;5.07;;
13244;SDS011;6689;53.400;12.486;2023-05-10T02:53:18;6.28;;;5.13;;
13244;SDS011;6689;53.400;12.486;2023-05-10T02:55:50;6.80;;;5.05;;
13244;SDS011;6689;53.400;12.486;2023-05-10T02:58:20;5.35;;;4.55;;
13244;SDS011;6689;53.400;12.486;2023-05-10T03:00:48;9.52;;;5.30;;
13244;SDS011;6689;53.400;12.486;2023-05-10T03:03:15;6.65;;;5.18;;
13244;SDS011;6689;53.400;12.486;2023-05-10T03:05:43;7.05;;;5.32;;
13244;SDS011;6689;53.400;12.486;2023-05-10T03:08:10;6.50;;;5.07;;
13244;SDS011;6689;53.400;12.486;2023-05-10T03:10:41;7.10;;;5.38;;
13244;SDS011;6689;53.400;12.486;2023-05-10T03:13:16;9.02;;;5.22;;
13244;SDS011;6689;53.400;12.486;2023-05-10T03:15:55;10.27;;;5.50;;
13244;SDS011;6689;53.400;12.486;2023-05-10T03:20:59;6.00;;;5.03;;
13244;SDS011;6689;53.400;12.486;2023-05-10T03:23:33;7.05;;;4.72;;
13244;SDS011;6689;53.400;12.486;2023-05-10T03:26:04;7.45;;;4.95;;
13244;SDS011;6689;53.400;12.486;2023-05-10T03:28:32;7.07;;;5.07;;
13244;SDS011;6689;53.400;12.486;2023-05-10T03:31:01;8.32;;;5.43;;
13244;SDS011;6689;53.400;12.486;2023-05-10T03:33:30;7.07;;;5.22;;
13244;SDS011;6689;53.400;12.486;2023-05-10T03:35:58;7.30;;;4.78;;
13244;SDS011;6689;53.400;12.486;2023-05-10T03:38:25;6.43;;;4.82;;
13244;SDS011;6689;53.400;12.486;2023-05-10T03:40:53;9.52;;;5.50;;
13244;SDS011;6689;53.400;12.486;2023-05-10T03:43:22;7.13;;;5.43;;
13244;SDS011;6689;53.400;12.486;2023-05-10T03:45:49;7.55;;;5.40;;
13244;SDS011;6689;53.400;12.486;2023-05-10T03:48:16;10.05;;;5.15;;
13244;SDS011;6689;53.400;12.486;2023-05-10T03:50:44;5.97;;;5.22;;
13244;SDS011;6689;53.400;12.486;2023-05-10T03:53:11;7.57;;;5.28;;
13244;SDS011;6689;53.400;12.486;2023-05-10T03:55:41;6.78;;;5.03;;
13244;SDS011;6689;53.400;12.486;2023-05-10T03:58:10;8.38;;;4.72;;
13244;SDS011;6689;53.400;12.486;2023-05-10T04:00:39;5.13;;;4.47;;
13244;SDS011;6689;53.400;12.486;2023-05-10T04:03:08;9.15;;;5.20;;
13244;SDS011;6689;53.400;12.486;2023-05-10T04:05:36;7.70;;;4.85;;
13244;SDS011;6689;53.400;12.486;2023-05-10T04:08:03;7.60;;;5.00;;
13244;SDS011;6689;53.400;12.486;2023-05-10T04:10:33;7.78;;;4.43;;
13244;SDS011;6689;53.400;12.486;2023-05-10T04:13:02;6.82;;;4.68;;
13244;SDS011;6689;53.400;12.486;2023-05-10T04:15:29;9.25;;;6.07;;
13244;SDS011;6689;53.400;12.486;2023-05-10T04:17:58;10.35;;;5.53;;
13244;SDS011;6689;53.400;12.486;2023-05-10T04:20:25;8.05;;;4.60;;
13244;SDS011;6689;53.400;12.486;2023-05-10T04:22:53;5.28;;;4.72;;
13244;SDS011;6689;53.400;12.486;2023-05-10T04:25:20;5.90;;;4.70;;
13244;SDS011;6689;53.400;12.486;2023-05-10T04:27:48;9.55;;;5.22;;
13244;SDS011;6689;53.400;12.486;2023-05-10T04:30:15;5.60;;;4.22;;
13244;SDS011;6689;53.400;12.486;2023-05-10T04:32:43;6.25;;;4.53;;
13244;SDS011;6689;53.400;12.486;2023-05-10T04:35:11;5.43;;;4.18;;
13244;SDS011;6689;53.400;12.486;2023-05-10T04:37:39;5.65;;;4.88;;
13244;SDS011;6689;53.400;12.486;2023-05-10T04:40:07;7.05;;;4.80;;
13244;SDS011;6689;53.400;12.486;2023-05-10T04:42:35;6.75;;;4.35;;
13244;SDS011;6689;53.400;12.486;2023-05-10T04:45:03;7.75;;;4.25;;
13244;SDS011;6689;53.400;12.486;2023-05-10T04:47:31;5.68;;;4.32;;
13244;SDS011;6689;53.400;12.486;2023-05-10T04:49:59;7.75;;;4.45;;
13244;SDS011;6689;53.400;12.486;2023-05-10T04:52:28;6.03;;;4.85;;
13244;SDS011;6689;53.400;12.486;2023-05-10T04:54:56;6.90;;;4.10;;
13244;SDS011;6689;53.400;12.486;2023-05-10T04:57:23;7.88;;;4.40;;
13244;SDS011;6689;53.400;12.486;2023-05-10T04:59:50;6.78;;;4.43;;
13244;SDS011;6689;53.400;12.486;2023-05-10T05:02:17;9.02;;;4.32;;
13244;SDS011;6689;53.400;12.486;2023-05-10T05:04:45;5.75;;;4.55;;
13244;SDS011;6689;53.400;12.486;2023-05-10T05:07:12;10.30;;;4.20;;
13244;SDS011;6689;53.400;12.486;2023-05-10T05:09:41;4.68;;;4.07;;
13244;SDS011;6689;53.400;12.486;2023-05-10T05:12:10;7.00;;;4.63;;
13244;SDS011;6689;53.400;12.486;2023-05-10T05:14:39;7.53;;;4.50;;
13244;SDS011;6689;53.400;12.486;2023-05-10T05:17:06;9.77;;;4.30;;
13244;SDS011;6689;53.400;12.486;2023-05-10T05:19:35;8.70;;;4.65;;
13244;SDS011;6689;53.400;12.486;2023-05-10T05:22:02;5.03;;;3.60;;
13244;SDS011;6689;53.400;12.486;2023-05-10T05:24:34;6.13;;;3.97;;
13244;SDS011;6689;53.400;12.486;2023-05-10T05:27:04;7.45;;;4.05;;
13244;SDS011;6689;53.400;12.486;2023-05-10T05:29:32;4.43;;;3.67;;
13244;SDS011;6689;53.400;12.486;2023-05-10T05:32:00;4.38;;;3.53;;
13244;SDS011;6689;53.400;12.486;2023-05-10T05:34:27;5.97;;;3.85;;
13244;SDS011;6689;53.400;12.486;2023-05-10T05:36:54;5.45;;;3.67;;
13244;SDS011;6689;53.400;12.486;2023-05-10T05:39:22;9.60;;;3.70;;
13244;SDS011;6689;53.400;12.486;2023-05-10T05:41:49;6.05;;;4.00;;
13244;SDS011;6689;53.400;12.486;2023-05-10T05:44:18;7.65;;;4.30;;
13244;SDS011;6689;53.400;12.486;2023-05-10T05:46:45;6.97;;;3.63;;
13244;SDS011;6689;53.400;12.486;2023-05-10T05:49:12;9.85;;;4.05;;
13244;SDS011;6689;53.400;12.486;2023-05-10T05:51:40;5.03;;;3.53;;
13244;SDS011;6689;53.400;12.486;2023-05-10T05:54:07;4.28;;;3.30;;
13244;SDS011;6689;53.400;12.486;2023-05-10T05:56:37;3.55;;;3.05;;
13244;SDS011;6689;53.400;12.486;2023-05-10T05:59:05;7.30;;;3.47;;
13244;SDS011;6689;53.400;12.486;2023-05-10T06:01:33;5.53;;;3.75;;
13244;SDS011;6689;53.400;12.486;2023-05-10T06:04:01;5.78;;;3.95;;
13244;SDS011;6689;53.400;12.486;2023-05-10T06:06:28;4.60;;;3.08;;
13244;SDS011;6689;53.400;12.486;2023-05-10T06:08:57;6.15;;;3.15;;
13244;SDS011;6689;53.400;12.486;2023-05-10T06:11:25;7.10;;;3.72;;
13244;SDS011;6689;53.400;12.486;2023-05-10T06:13:53;6.15;;;3.25;;
13244;SDS011;6689;53.400;12.486;2023-05-10T06:16:20;4.88;;;3.10;;
13244;SDS011;6689;53.400;12.486;2023-05-10T06:18:48;5.60;;;3.17;;
13244;SDS011;6689;53.400;12.486;2023-05-10T06:21:16;6.40;;;3.70;;
13244;SDS011;6689;53.400;12.486;2023-05-10T06:23:43;5.65;;;3.00;;
13244;SDS011;6689;53.400;12.486;2023-05-10T06:26:10;3.53;;;3.10;;
13244;SDS011;6689;53.400;12.486;2023-05-10T06:28:39;4.80;;;3.40;;
13244;SDS011;6689;53.400;12.486;2023-05-10T06:31:06;4.35;;;3.10;;
13244;SDS011;6689;53.400;12.486;2023-05-10T06:33:36;4.85;;;3.28;;
13244;SDS011;6689;53.400;12.486;2023-05-10T06:36:05;8.18;;;3.60;;
13244;SDS011;6689;53.400;12.486;2023-05-10T06:38:32;4.53;;;3.08;;
13244;SDS011;6689;53.400;12.486;2023-05-10T06:40:59;3.92;;;3.00;;
13244;SDS011;6689;53.400;12.486;2023-05-10T06:43:27;5.95;;;3.30;;
13244;SDS011;6689;53.400;12.486;2023-05-10T06:45:54;6.05;;;3.15;;
13244;SDS011;6689;53.400;12.486;2023-05-10T06:48:22;3.55;;;2.83;;
13244;SDS011;6689;53.400;12.486;2023-05-10T06:50:49;3.08;;;2.78;;
13244;SDS011;6689;53.400;12.486;2023-05-10T06:53:18;5.78;;;3.08;;
13244;SDS011;6689;53.400;12.486;2023-05-10T06:55:48;7.18;;;3.30;;
13244;SDS011;6689;53.400;12.486;2023-05-10T06:58:16;4.18;;;2.85;;
13244;SDS011;6689;53.400;12.486;2023-05-10T07:00:43;4.32;;;3.05;;
13244;SDS011;6689;53.400;12.486;2023-05-10T07:03:11;5.97;;;3.30;;
13244;SDS011;6689;53.400;12.486;2023-05-10T07:05:39;3.78;;;3.35;;
13244;SDS011;6689;53.400;12.486;2023-05-10T07:08:06;8.25;;;2.83;;
13244;SDS011;6689;53.400;12.486;2023-05-10T07:10:35;5.93;;;3.33;;
13244;SDS011;6689;53.400;12.486;2023-05-10T07:13:02;4.22;;;3.03;;
13244;SDS011;6689;53.400;12.486;2023-05-10T07:15:29;4.68;;;2.63;;
13244;SDS011;6689;53.400;12.486;2023-05-10T07:17:57;6.43;;;3.13;;
13244;SDS011;6689;53.400;12.486;2023-05-10T07:20:24;6.20;;;3.28;;
13244;SDS011;6689;53.400;12.486;2023-05-10T07:22:51;7.60;;;3.05;;
13244;SDS011;6689;53.400;12.486;2023-05-10T07:25:19;5.45;;;3.17;;
13244;SDS011;6689;53.400;12.486;2023-05-10T07:27:47;6.20;;;3.25;;
13244;SDS011;6689;53.400;12.486;2023-05-10T07:30:16;4.47;;;3.10;;
13244;SDS011;6689;53.400;12.486;2023-05-10T07:32:43;3.83;;;3.17;;
13244;SDS011;6689;53.400;12.486;2023-05-10T07:35:11;5.53;;;2.80;;
13244;SDS011;6689;53.400;12.486;2023-05-10T07:37:38;3.33;;;2.97;;
13244;SDS011;6689;53.400;12.486;2023-05-10T07:40:06;3.38;;;2.53;;
13244;SDS011;6689;53.400;12.486;2023-05-10T07:42:34;6.38;;;3.15;;
13244;SDS011;6689;53.400;12.486;2023-05-10T07:45:03;8.57;;;3.25;;
13244;SDS011;6689;53.400;12.486;2023-05-10T07:47:31;5.43;;;3.10;;
13244;SDS011;6689;53.400;12.486;2023-05-10T07:49:58;6.38;;;3.22;;
13244;SDS011;6689;53.400;12.486;2023-05-10T07:52:26;7.82;;;3.65;;
13244;SDS011;6689;53.400;12.486;2023-05-10T07:54:53;5.78;;;3.08;;
13244;SDS011;6689;53.400;12.486;2023-05-10T07:57:22;3.65;;;3.03;;
13244;SDS011;6689;53.400;12.486;2023-05-10T07:59:49;4.10;;;3.10;;
13244;SDS011;6689;53.400;12.486;2023-05-10T08:02:18;3.65;;;2.80;;
13244;SDS011;6689;53.400;12.486;2023-05-10T08:04:45;6.25;;;3.20;;
13244;SDS011;6689;53.400;12.486;2023-05-10T08:07:12;4.30;;;3.30;;
13244;SDS011;6689;53.400;12.486;2023-05-10T08:09:40;4.03;;;3.40;;
13244;SDS011;6689;53.400;12.486;2023-05-10T08:12:07;5.38;;;3.22;;
13244;SDS011;6689;53.400;12.486;2023-05-10T08:14:34;7.85;;;3.90;;
13244;SDS011;6689;53.400;12.486;2023-05-10T08:17:02;4.68;;;3.22;;
13244;SDS011;6689;53.400;12.486;2023-05-10T08:19:31;4.18;;;3.28;;
13244;SDS011;6689;53.400;12.486;2023-05-10T08:21:59;4.25;;;2.97;;
13244;SDS011;6689;53.400;12.486;2023-05-10T08:24:26;5.28;;;3.22;;
13244;SDS011;6689;53.400;12.486;2023-05-10T08:26:53;5.65;;;3.33;;
13244;SDS011;6689;53.400;12.486;2023-05-10T08:29:21;5.20;;;3.38;;
13244;SDS011;6689;53.400;12.486;2023-05-10T08:31:48;4.50;;;3.10;;
13244;SDS011;6689;53.400;12.486;2023-05-10T08:34:16;5.53;;;3.35;;
13244;SDS011;6689;53.400;12.486;2023-05-10T08:36:45;6.32;;;2.97;;
13244;SDS011;6689;53.400;12.486;2023-05-10T08:39:12;5.65;;;2.92;;
13244;SDS011;6689;53.400;12.486;2023-05-10T08:41:39;4.68;;;3.35;;
13244;SDS011;6689;53.400;12.486;2023-05-10T08:44:11;4.30;;;3.00;;
13244;SDS011;6689;53.400;12.486;2023-05-10T08:46:38;3.30;;;3.00;;
13244;SDS011;6689;53.400;12.486;2023-05-10T08:49:12;4.57;;;2.72;;
13244;SDS011;6689;53.400;12.486;2023-05-10T08:51:47;4.82;;;3.00;;
13244;SDS011;6689;53.400;12.486;2023-05-10T08:54:17;4.00;;;2.97;;
13244;SDS011;6689;53.400;12.486;2023-05-10T08:56:45;5.22;;;2.50;;
13244;SDS011;6689;53.400;12.486;2023-05-10T08:59:12;3.80;;;2.85;;
13244;SDS011;6689;53.400;12.486;2023-05-10T09:01:41;4.35;;;2.80;;
13244;SDS011;6689;53.400;12.486;2023-05-10T09:04:11;6.18;;;2.90;;
13244;SDS011;6689;53.400;12.486;2023-05-10T09:06:38;8.35;;;3.90;;
13244;SDS011;6689;53.400;12.486;2023-05-10T09:09:07;4.13;;;2.70;;
13244;SDS011;6689;53.400;12.486;2023-05-10T09:11:35;6.15;;;2.90;;
13244;SDS011;6689;53.400;12.486;2023-05-10T09:14:02;4.57;;;2.53;;
13244;SDS011;6689;53.400;12.486;2023-05-10T09:16:30;6.70;;;2.75;;
13244;SDS011;6689;53.400;12.486;2023-05-10T09:18:58;4.65;;;2.60;;
13244;SDS011;6689;53.400;12.486;2023-05-10T09:21:25;4.22;;;2.80;;
13244;SDS011;6689;53.400;12.486;2023-05-10T09:23:52;6.55;;;2.80;;
13244;SDS011;6689;53.400;12.486;2023-05-10T09:26:23;6.88;;;2.60;;
13244;SDS011;6689;53.400;12.486;2023-05-10T09:28:51;4.25;;;2.55;;
13244;SDS011;6689;53.400;12.486;2023-05-10T09:31:19;3.60;;;2.85;;
13244;SDS011;6689;53.400;12.486;2023-05-10T09:33:47;4.85;;;2.78;;
13244;SDS011;6689;53.400;12.486;2023-05-10T09:36:15;7.97;;;2.95;;
13244;SDS011;6689;53.400;12.486;2023-05-10T09:38:45;3.58;;;2.75;;
13244;SDS011;6689;53.400;12.486;2023-05-10T09:41:17;3.17;;;2.63;;
13244;SDS011;6689;53.400;12.486;2023-05-10T09:43:48;7.07;;;3.53;;
13244;SDS011;6689;53.400;12.486;2023-05-10T09:46:15;4.30;;;2.95;;
13244;SDS011;6689;53.400;12.486;2023-05-10T09:48:44;4.32;;;2.63;;
13244;SDS011;6689;53.400;12.486;2023-05-10T09:51:18;3.90;;;2.80;;
13244;SDS011;6689;53.400;12.486;2023-05-10T09:53:46;3.90;;;2.83;;
13244;SDS011;6689;53.400;12.486;2023-05-10T09:59:06;4.28;;;3.30;;
13244;SDS011;6689;53.400;12.486;2023-05-10T10:01:34;7.45;;;2.65;;
13244;SDS011;6689;53.400;12.486;2023-05-10T10:04:02;4.35;;;2.95;;
13244;SDS011;6689;53.400;12.486;2023-05-10T10:06:34;5.35;;;2.65;;
13244;SDS011;6689;53.400;12.486;2023-05-10T10:09:03;3.35;;;2.35;;
13244;SDS011;6689;53.400;12.486;2023-05-10T10:11:31;4.38;;;2.85;;
13244;SDS011;6689;53.400;12.486;2023-05-10T10:13:59;6.00;;;2.60;;
13244;SDS011;6689;53.400;12.486;2023-05-10T10:16:28;4.78;;;2.72;;
13244;SDS011;6689;53.400;12.486;2023-05-10T10:18:56;4.78;;;2.80;;
13244;SDS011;6689;53.400;12.486;2023-05-10T10:21:23;6.15;;;2.95;;
13244;SDS011;6689;53.400;12.486;2023-05-10T10:23:51;4.00;;;2.72;;
13244;SDS011;6689;53.400;12.486;2023-05-10T10:26:19;4.13;;;2.53;;
13244;SDS011;6689;53.400;12.486;2023-05-10T10:28:48;2.92;;;2.35;;
13244;SDS011;6689;53.400;12.486;2023-05-10T10:31:26;6.25;;;3.05;;
13244;SDS011;6689;53.400;12.486;2023-05-10T10:34:01;8.13;;;2.92;;
13244;SDS011;6689;53.400;12.486;2023-05-10T10:36:33;3.80;;;2.20;;
13244;SDS011;6689;53.400;12.486;2023-05-10T10:39:08;4.68;;;2.20;;
13244;SDS011;6689;53.400;12.486;2023-05-10T10:41:38;3.47;;;2.60;;
13244;SDS011;6689;53.400;12.486;2023-05-10T10:47:23;6.47;;;2.85;;
13244;SDS011;6689;53.400;12.486;2023-05-10T10:50:02;6.28;;;2.97;;
13244;SDS011;6689;53.400;12.486;2023-05-10T10:52:32;7.43;;;2.50;;
13244;SDS011;6689;53.400;12.486;2023-05-10T10:55:02;5.40;;;2.72;;
13244;SDS011;6689;53.400;12.486;2023-05-10T10:57:32;3.50;;;2.70;;
13244;SDS011;6689;53.400;12.486;2023-05-10T11:05:35;5.47;;;2.63;;
13244;SDS011;6689;53.400;12.486;2023-05-10T11:08:08;7.55;;;2.88;;
13244;SDS011;6689;53.400;12.486;2023-05-10T11:10:37;3.17;;;2.33;;
13244;SDS011;6689;53.400;12.486;2023-05-10T11:13:05;3.45;;;2.60;;
13244;SDS011;6689;53.400;12.486;2023-05-10T11:15:35;3.67;;;2.28;;
13244;SDS011;6689;53.400;12.486;2023-05-10T11:18:20;7.28;;;2.88;;
13244;SDS011;6689;53.400;12.486;2023-05-10T11:20:50;5.57;;;2.50;;
13244;SDS011;6689;53.400;12.486;2023-05-10T11:23:18;4.32;;;2.88;;
13244;SDS011;6689;53.400;12.486;2023-05-10T11:25:47;6.07;;;2.42;;
13244;SDS011;6689;53.400;12.486;2023-05-10T11:28:16;7.80;;;3.05;;
13244;SDS011;6689;53.400;12.486;2023-05-10T11:30:45;5.45;;;2.83;;
13244;SDS011;6689;53.400;12.486;2023-05-10T11:33:15;4.82;;;2.65;;
13244;SDS011;6689;53.400;12.486;2023-05-10T11:35:46;4.03;;;2.42;;
13244;SDS011;6689;53.400;12.486;2023-05-10T11:38:13;3.97;;;2.53;;
13244;SDS011;6689;53.400;12.486;2023-05-10T11:40:40;3.13;;;2.40;;
13244;SDS011;6689;53.400;12.486;2023-05-10T11:43:08;4.75;;;2.75;;
13244;SDS011;6689;53.400;12.486;2023-05-10T11:45:40;5.95;;;2.50;;
13244;SDS011;6689;53.400;12.486;2023-05-10T11:48:08;6.13;;;3.05;;
13244;SDS011;6689;53.400;12.486;2023-05-10T11:50:36;5.90;;;3.30;;
13244;SDS011;6689;53.400;12.486;2023-05-10T11:53:05;4.07;;;2.80;;
13244;SDS011;6689;53.400;12.486;2023-05-10T11:55:33;8.00;;;2.88;;
13244;SDS011;6689;53.400;12.486;2023-05-10T11:58:01;8.35;;;2.45;;
13244;SDS011;6689;53.400;12.486;2023-05-10T12:00:29;8.75;;;3.33;;
13244;SDS011;6689;53.400;12.486;2023-05-10T12:02:58;3.97;;;2.45;;
13244;SDS011;6689;53.400;12.486;2023-05-10T12:05:26;5.05;;;2.80;;
13244;SDS011;6689;53.400;12.486;2023-05-10T12:10:41;5.72;;;2.60;;
13244;SDS011;6689;53.400;12.486;2023-05-10T12:13:12;5.53;;;2.88;;
13244;SDS011;6689;53.400;12.486;2023-05-10T12:15:41;4.03;;;2.63;;
13244;SDS011;6689;53.400;12.486;2023-05-10T12:18:09;3.08;;;2.72;;
13244;SDS011;6689;53.400;12.486;2023-05-10T12:20:36;5.00;;;3.08;;
13244;SDS011;6689;53.400;12.486;2023-05-10T12:23:05;4.45;;;2.75;;
13244;SDS011;6689;53.400;12.486;2023-05-10T12:25:36;5.05;;;2.60;;
13244;SDS011;6689;53.400;12.486;2023-05-10T12:28:05;3.97;;;2.60;;
13244;SDS011;6689;53.400;12.486;2023-05-10T12:30:35;6.03;;;2.97;;
13244;SDS011;6689;53.400;12.486;2023-05-10T12:33:07;6.50;;;2.95;;
13244;SDS011;6689;53.400;12.486;2023-05-10T12:35:46;7.85;;;2.65;;
13244;SDS011;6689;53.400;12.486;2023-05-10T12:38:25;5.43;;;2.55;;
13244;SDS011;6689;53.400;12.486;2023-05-10T12:40:56;2.60;;;2.22;;
13244;SDS011;6689;53.400;12.486;2023-05-10T12:43:24;6.55;;;2.58;;
13244;SDS011;6689;53.400;12.486;2023-05-10T12:45:51;7.70;;;2.78;;
13244;SDS011;6689;53.400;12.486;2023-05-10T12:48:19;5.05;;;2.70;;
13244;SDS011;6689;53.400;12.486;2023-05-10T12:50:46;2.78;;;2.53;;
13244;SDS011;6689;53.400;12.486;2023-05-10T12:53:13;5.25;;;2.65;;
13244;SDS011;6689;53.400;12.486;2023-05-10T12:55:41;4.75;;;2.45;;
13244;SDS011;6689;53.400;12.486;2023-05-10T12:58:10;5.95;;;2.50;;
13244;SDS011;6689;53.400;12.486;2023-05-10T13:00:37;7.57;;;3.08;;
13244;SDS011;6689;53.400;12.486;2023-05-10T13:03:05;7.80;;;2.88;;
13244;SDS011;6689;53.400;12.486;2023-05-10T13:05:32;3.55;;;2.45;;
13244;SDS011;6689;53.400;12.486;2023-05-10T13:08:00;3.40;;;2.80;;
13244;SDS011;6689;53.400;12.486;2023-05-10T13:10:28;4.05;;;2.55;;
13244;SDS011;6689;53.400;12.486;2023-05-10T13:12:57;4.95;;;2.80;;
13244;SDS011;6689;53.400;12.486;2023-05-10T13:15:28;6.57;;;2.50;;
13244;SDS011;6689;53.400;12.486;2023-05-10T13:17:55;4.60;;;2.38;;
13244;SDS011;6689;53.400;12.486;2023-05-10T13:20:23;4.50;;;2.33;;
13244;SDS011;6689;53.400;12.486;2023-05-10T13:22:51;6.20;;;2.50;;
13244;SDS011;6689;53.400;12.486;2023-05-10T13:25:18;3.88;;;2.55;;
13244;SDS011;6689;53.400;12.486;2023-05-10T13:27:46;5.75;;;2.70;;
13244;SDS011;6689;53.400;12.486;2023-05-10T13:30:13;3.55;;;2.63;;
13244;SDS011;6689;53.400;12.486;2023-05-10T13:32:42;6.32;;;2.63;;
13244;SDS011;6689;53.400;12.486;2023-05-10T13:35:09;3.92;;;2.88;;
13244;SDS011;6689;53.400;12.486;2023-05-10T13:37:37;4.13;;;3.00;;
13244;SDS011;6689;53.400;12.486;2023-05-10T13:40:04;4.60;;;2.88;;
13244;SDS011;6689;53.400;12.486;2023-05-10T13:42:33;6.72;;;3.60;;
13244;SDS011;6689;53.400;12.486;2023-05-10T13:45:00;6.70;;;2.60;;
13244;SDS011;6689;53.400;12.486;2023-05-10T13:47:28;3.65;;;2.88;;
13244;SDS011;6689;53.400;12.486;2023-05-10T13:49:57;8.38;;;2.83;;
13244;SDS011;6689;53.400;12.486;2023-05-10T13:52:24;3.47;;;2.85;;
13244;SDS011;6689;53.400;12.486;2023-05-10T13:54:52;3.78;;;2.63;;
13244;SDS011;6689;53.400;12.486;2023-05-10T13:57:21;6.35;;;2.53;;
13244;SDS011;6689;53.400;12.486;2023-05-10T13:59:49;2.83;;;2.45;;
13244;SDS011;6689;53.400;12.486;2023-05-10T14:02:19;8.88;;;3.35;;
13244;SDS011;6689;53.400;12.486;2023-05-10T14:04:46;3.13;;;2.53;;
13244;SDS011;6689;53.400;12.486;2023-05-10T14:07:15;4.20;;;2.90;;
13244;SDS011;6689;53.400;12.486;2023-05-10T14:09:42;5.57;;;2.78;;
13244;SDS011;6689;53.400;12.486;2023-05-10T14:12:10;3.50;;;2.45;;
13244;SDS011;6689;53.400;12.486;2023-05-10T14:14:37;4.95;;;3.40;;
13244;SDS011;6689;53.400;12.486;2023-05-10T14:17:05;4.63;;;2.97;;
13244;SDS011;6689;53.400;12.486;2023-05-10T14:19:32;5.28;;;2.80;;
13244;SDS011;6689;53.400;12.486;2023-05-10T14:22:00;7.07;;;2.70;;
13244;SDS011;6689;53.400;12.486;2023-05-10T14:24:29;5.07;;;2.78;;
13244;SDS011;6689;53.400;12.486;2023-05-10T14:26:58;3.30;;;2.33;;
13244;SDS011;6689;53.400;12.486;2023-05-10T14:29:25;3.75;;;2.70;;
13244;SDS011;6689;53.400;12.486;2023-05-10T14:31:53;4.63;;;2.88;;
13244;SDS011;6689;53.400;12.486;2023-05-10T14:34:20;5.32;;;3.00;;
13244;SDS011;6689;53.400;12.486;2023-05-10T14:36:48;5.97;;;2.42;;
13244;SDS011;6689;53.400;12.486;2023-05-10T14:39:15;6.80;;;3.00;;
13244;SDS011;6689;53.400;12.486;2023-05-10T14:41:44;3.80;;;2.55;;
13244;SDS011;6689;53.400;12.486;2023-05-10T14:44:12;3.42;;;2.72;;
13244;SDS011;6689;53.400;12.486;2023-05-10T14:46:40;4.43;;;2.40;;
13244;SDS011;6689;53.400;12.486;2023-05-10T14:49:08;4.07;;;3.03;;
13244;SDS011;6689;53.400;12.486;2023-05-10T14:51:35;4.95;;;2.47;;
13244;SDS011;6689;53.400;12.486;2023-05-10T14:54:03;5.47;;;2.53;;
13244;SDS011;6689;53.400;12.486;2023-05-10T14:56:30;7.35;;;3.20;;
13244;SDS011;6689;53.400;12.486;2023-05-10T14:58:59;4.18;;;2.88;;
13244;SDS011;6689;53.400;12.486;2023-05-10T15:01:27;4.15;;;2.83;;
13244;SDS011;6689;53.400;12.486;2023-05-10T15:03:56;3.75;;;2.60;;
13244;SDS011;6689;53.400;12.486;2023-05-10T15:06:29;4.10;;;2.42;;
13244;SDS011;6689;53.400;12.486;2023-05-10T15:08:58;3.50;;;2.80;;
13244;SDS011;6689;53.400;12.486;2023-05-10T15:11:28;5.13;;;2.83;;
13244;SDS011;6689;53.400;12.486;2023-05-10T15:13:55;5.18;;;2.97;;